sensor_id;sensor_type;location;lat;lon;timestamp;pressure;altitude;pressure_sealevel;temperature;humidity
66273;BME280;58450;52.150;4.466;2023-10-09T00:02:07;102012.31;;;17.59;100.00
66273;BME280;58450;52.150;4.466;2023-10-09T00:04:38;102026.78;;;17.66;100.00
66273;BME280;58450;52.150;4.466;2023-10-09T00:07:07;102020.31;;;17.87;100.00
66273;BME280;58450;52.150;4.466;2023-10-09T00:09:37;102020.31;;;17.87;100.00
66273;BME280;58450;52.150;4.466;2023-10-09T00:12:14;102020.16;;;18.09;100.00
66273;BME280;58450;52.150;4.466;2023-10-09T00:14:42;102018.25;;;18.57;100.00
66273;BME280;58450;52.150;4.466;2023-10-09T00:17:15;102021.00;;;18.37;100.00
66273;BME280;58450;52.150;4.466;2023-10-09T00:19:47;102021.00;;;18.37;100.00
66273;BME280;58450;52.150;4.466;2023-10-09T00:22:17;102018.50;;;18.22;100.00
66273;BME280;58450;52.150;4.466;2023-10-09T00:24:56;102026.88;;;18.40;100.00
66273;BME280;58450;52.150;4.466;2023-10-09T00:27:38;102020.59;;;18.46;100.00
66273;BME280;58450;52.150;4.466;2023-10-09T00:30:10;102022.06;;;18.29;100.00
66273;BME280;58450;52.150;4.466;2023-10-09T00:32:41;102024.16;;;18.40;100.00
66273;BME280;58450;52.150;4.466;2023-10-09T00:35:12;102027.06;;;18.66;100.00
66273;BME280;58450;52.150;4.466;2023-10-09T00:37:57;102018.44;;;18.82;100.00
66273;BME280;58450;52.150;4.466;2023-10-09T00:40:32;102021.97;;;18.96;100.00
66273;BME280;58450;52.150;4.466;2023-10-09T00:43:03;102024.66;;;19.03;100.00
66273;BME280;58450;52.150;4.466;2023-10-09T00:45:38;102028.06;;;18.92;100.00
66273;BME280;58450;52.150;4.466;2023-10-09T00:48:07;102013.38;;;18.93;100.00
66273;BME280;58450;52.150;4.466;2023-10-09T00:50:37;102015.84;;;19.01;100.00
66273;BME280;58450;52.150;4.466;2023-10-09T00:53:13;102006.66;;;18.88;100.00
66273;BME280;58450;52.150;4.466;2023-10-09T00:55:44;102000.72;;;19.05;100.00
66273;BME280;58450;52.150;4.466;2023-10-09T00:58:22;101995.78;;;19.34;100.00
66273;BME280;58450;52.150;4.466;2023-10-09T01:00:57;101989.69;;;19.39;100.00
66273;BME280;58450;52.150;4.466;2023-10-09T01:03:25;101987.44;;;19.61;100.00
66273;BME280;58450;52.150;4.466;2023-10-09T01:05:56;101981.63;;;19.83;100.00
66273;BME280;58450;52.150;4.466;2023-10-09T01:08:42;101990.78;;;19.95;100.00
66273;BME280;58450;52.150;4.466;2023-10-09T01:11:21;101980.81;;;20.07;100.00
66273;BME280;58450;52.150;4.466;2023-10-09T01:13:50;101977.88;;;20.09;100.00
66273;BME280;58450;52.150;4.466;2023-10-09T01:16:25;101977.13;;;19.95;100.00
66273;BME280;58450;52.150;4.466;2023-10-09T01:18:57;101965.94;;;20.03;100.00
66273;BME280;58450;52.150;4.466;2023-10-09T01:21:27;101950.69;;;19.89;100.00
66273;BME280;58450;52.150;4.466;2023-10-09T01:23:59;101952.06;;;19.73;100.00
66273;BME280;58450;52.150;4.466;2023-10-09T01:26:30;101950.53;;;19.84;100.00
66273;BME280;58450;52.150;4.466;2023-10-09T01:29:00;101953.44;;;20.14;100.00
66273;BME280;58450;52.150;4.466;2023-10-09T01:31:29;101957.28;;;20.06;100.00
66273;BME280;58450;52.150;4.466;2023-10-09T01:34:03;101954.72;;;20.12;100.00
66273;BME280;58450;52.150;4.466;2023-10-09T01:36:36;101955.44;;;20.00;100.00
66273;BME280;58450;52.150;4.466;2023-10-09T01:39:07;101954.78;;;20.05;100.00
66273;BME280;58450;52.150;4.466;2023-10-09T01:41:47;101960.44;;;19.78;100.00
66273;BME280;58450;52.150;4.466;2023-10-09T01:44:18;101961.59;;;19.96;100.00
66273;BME280;58450;52.150;4.466;2023-10-09T01:46:45;101958.13;;;20.07;100.00
66273;BME280;58450;52.150;4.466;2023-10-09T01:49:13;101956.47;;;20.06;100.00
66273;BME280;58450;52.150;4.466;2023-10-09T01:51:47;101964.13;;;19.65;100.00
66273;BME280;58450;52.150;4.466;2023-10-09T01:54:17;101956.81;;;19.84;100.00
66273;BME280;58450;52.150;4.466;2023-10-09T01:56:59;101943.13;;;19.91;100.00
66273;BME280;58450;52.150;4.466;2023-10-09T01:59:32;101946.28;;;19.88;100.00
66273;BME280;58450;52.150;4.466;2023-10-09T02:02:04;101937.22;;;19.94;100.00
66273;BME280;58450;52.150;4.466;2023-10-09T02:04:40;101928.56;;;19.97;100.00
66273;BME280;58450;52.150;4.466;2023-10-09T02:07:08;101920.03;;;19.87;100.00
66273;BME280;58450;52.150;4.466;2023-10-09T02:09:37;101915.41;;;19.62;100.00
66273;BME280;58450;52.150;4.466;2023-10-09T02:12:13;101908.94;;;19.82;100.00
66273;BME280;58450;52.150;4.466;2023-10-09T02:14:40;101917.47;;;19.92;100.00
66273;BME280;58450;52.150;4.466;2023-10-09T02:17:10;101927.75;;;19.97;100.00
66273;BME280;58450;52.150;4.466;2023-10-09T02:19:44;101927.13;;;19.95;100.00
66273;BME280;58450;52.150;4.466;2023-10-09T02:22:15;101933.38;;;20.02;100.00
66273;BME280;58450;52.150;4.466;2023-10-09T02:24:45;101934.09;;;19.90;100.00
66273;BME280;58450;52.150;4.466;2023-10-09T02:27:25;101934.66;;;19.99;100.00
66273;BME280;58450;52.150;4.466;2023-10-09T02:30:13;101925.41;;;20.00;100.00
66273;BME280;58450;52.150;4.466;2023-10-09T02:32:46;101923.09;;;19.97;100.00
66273;BME280;58450;52.150;4.466;2023-10-09T02:35:19;101932.66;;;20.13;100.00
66273;BME280;58450;52.150;4.466;2023-10-09T02:37:54;101918.59;;;20.10;100.00
66273;BME280;58450;52.150;4.466;2023-10-09T02:40:28;101923.88;;;20.04;100.00
66273;BME280;58450;52.150;4.466;2023-10-09T02:42:59;101914.75;;;20.17;100.00
66273;BME280;58450;52.150;4.466;2023-10-09T02:45:26;101918.13;;;20.13;100.00
66273;BME280;58450;52.150;4.466;2023-10-09T02:48:01;101903.38;;;20.20;100.00
66273;BME280;58450;52.150;4.466;2023-10-09T02:50:36;101915.34;;;20.19;100.00
66273;BME280;58450;52.150;4.466;2023-10-09T02:53:09;101907.94;;;20.01;100.00
66273;BME280;58450;52.150;4.466;2023-10-09T02:55:46;101911.16;;;20.17;100.00
66273;BME280;58450;52.150;4.466;2023-10-09T02:58:37;101900.69;;;20.14;100.00
66273;BME280;58450;52.150;4.466;2023-10-09T03:01:10;101905.25;;;20.20;100.00
66273;BME280;58450;52.150;4.466;2023-10-09T03:03:40;101901.63;;;20.45;100.00
66273;BME280;58450;52.150;4.466;2023-10-09T03:06:11;101902.97;;;20.35;100.00
66273;BME280;58450;52.150;4.466;2023-10-09T03:08:40;101894.59;;;20.12;100.00
66273;BME280;58450;52.150;4.466;2023-10-09T03:11:09;101896.44;;;20.36;100.00
66273;BME280;58450;52.150;4.466;2023-10-09T03:13:42;101902.44;;;20.08;100.00
66273;BME280;58450;52.150;4.466;2023-10-09T03:16:11;101904.41;;;20.38;100.00
66273;BME280;58450;52.150;4.466;2023-10-09T03:18:42;101901.44;;;20.21;100.00
66273;BME280;58450;52.150;4.466;2023-10-09T03:21:09;101906.59;;;20.11;100.00
66273;BME280;58450;52.150;4.466;2023-10-09T03:23:37;101925.22;;;20.20;100.00
66273;BME280;58450;52.150;4.466;2023-10-09T03:26:04;101933.19;;;20.22;100.00
66273;BME280;58450;52.150;4.466;2023-10-09T03:28:35;101957.84;;;20.15;100.00
66273;BME280;58450;52.150;4.466;2023-10-09T03:31:03;101955.00;;;20.03;100.00
66273;BME280;58450;52.150;4.466;2023-10-09T03:33:33;101954.19;;;20.03;100.00
66273;BME280;58450;52.150;4.466;2023-10-09T03:36:01;101944.97;;;19.97;100.00
66273;BME280;58450;52.150;4.466;2023-10-09T03:38:33;101936.75;;;19.97;100.00
66273;BME280;58450;52.150;4.466;2023-10-09T03:41:02;101946.44;;;20.00;100.00
66273;BME280;58450;52.150;4.466;2023-10-09T03:43:34;101925.56;;;20.05;100.00
66273;BME280;58450;52.150;4.466;2023-10-09T03:46:04;101922.34;;;20.15;100.00
66273;BME280;58450;52.150;4.466;2023-10-09T03:48:46;101918.53;;;20.35;100.00
66273;BME280;58450;52.150;4.466;2023-10-09T03:51:14;101925.22;;;20.20;100.00
66273;BME280;58450;52.150;4.466;2023-10-09T03:53:47;101927.09;;;20.20;100.00
66273;BME280;58450;52.150;4.466;2023-10-09T03:56:15;101929.34;;;20.04;100.00
66273;BME280;58450;52.150;4.466;2023-10-09T03:58:46;101920.81;;;19.94;100.00
66273;BME280;58450;52.150;4.466;2023-10-09T04:01:16;101916.13;;;20.01;100.00
66273;BME280;58450;52.150;4.466;2023-10-09T04:03:49;101918.22;;;20.06;100.00
66273;BME280;58450;52.150;4.466;2023-10-09T04:06:21;101917.75;;;19.84;100.00
66273;BME280;58450;52.150;4.466;2023-10-09T04:08:48;101914.97;;;19.90;100.00
66273;BME280;58450;52.150;4.466;2023-10-09T04:11:17;101899.75;;;20.01;100.00
66273;BME280;58450;52.150;4.466;2023-10-09T04:13:50;101891.88;;;19.86;100.00
66273;BME280;58450;52.150;4.466;2023-10-09T04:16:19;101885.03;;;20.02;100.00
66273;BME280;58450;52.150;4.466;2023-10-09T04:19:00;101875.63;;;20.17;100.00
66273;BME280;58450;52.150;4.466;2023-10-09T04:21:34;101890.47;;;20.02;100.00
66273;BME280;58450;52.150;4.466;2023-10-09T04:24:02;101893.66;;;20.25;100.00
66273;BME280;58450;52.150;4.466;2023-10-09T04:26:50;101913.66;;;20.00;100.00
66273;BME280;58450;52.150;4.466;2023-10-09T04:29:25;101906.78;;;19.90;100.00
66273;BME280;58450;52.150;4.466;2023-10-09T04:32:05;101909.13;;;20.12;100.00
66273;BME280;58450;52.150;4.466;2023-10-09T04:34:42;101923.69;;;20.06;100.00
66273;BME280;58450;52.150;4.466;2023-10-09T04:37:15;101906.88;;;20.02;100.00
66273;BME280;58450;52.150;4.466;2023-10-09T04:40:03;101913.31;;;19.89;100.00
66273;BME280;58450;52.150;4.466;2023-10-09T04:42:38;101930.97;;;19.87;100.00
66273;BME280;58450;52.150;4.466;2023-10-09T04:45:14;101920.81;;;20.19;100.00
66273;BME280;58450;52.150;4.466;2023-10-09T04:48:07;101943.38;;;19.89;100.00
66273;BME280;58450;52.150;4.466;2023-10-09T04:50:35;101923.00;;;20.11;100.00
66273;BME280;58450;52.150;4.466;2023-10-09T04:53:14;101927.91;;;20.02;100.00
66273;BME280;58450;52.150;4.466;2023-10-09T04:55:51;101929.34;;;19.79;100.00
66273;BME280;58450;52.150;4.466;2023-10-09T04:58:20;101953.41;;;19.63;100.00
66273;BME280;58450;52.150;4.466;2023-10-09T05:00:54;101947.19;;;19.82;100.00
66273;BME280;58450;52.150;4.466;2023-10-09T05:03:41;101952.91;;;19.73;100.00
66273;BME280;58450;52.150;4.466;2023-10-09T05:06:12;101957.63;;;19.91;100.00
66273;BME280;58450;52.150;4.466;2023-10-09T05:08:58;101934.09;;;19.90;100.00
66273;BME280;58450;52.150;4.466;2023-10-09T05:11:35;101943.13;;;19.91;100.00
66273;BME280;58450;52.150;4.466;2023-10-09T05:14:16;101949.31;;;20.05;100.00
66273;BME280;58450;52.150;4.466;2023-10-09T05:16:54;101952.56;;;20.20;100.00
66273;BME280;58450;52.150;4.466;2023-10-09T05:19:27;101976.38;;;20.13;100.00
66273;BME280;58450;52.150;4.466;2023-10-09T05:22:11;101968.56;;;20.17;100.00
66273;BME280;58450;52.150;4.466;2023-10-09T05:24:56;101971.13;;;20.12;100.00
66273;BME280;58450;52.150;4.466;2023-10-09T05:27:23;101948.69;;;19.77;100.00
66273;BME280;58450;52.150;4.466;2023-10-09T05:30:11;101936.47;;;19.80;100.00
66273;BME280;58450;52.150;4.466;2023-10-09T05:32:53;101916.53;;;20.05;100.00
66273;BME280;58450;52.150;4.466;2023-10-09T05:35:24;101915.75;;;19.98;100.00
66273;BME280;58450;52.150;4.466;2023-10-09T05:38:07;101918.81;;;19.83;100.00
66273;BME280;58450;52.150;4.466;2023-10-09T05:40:50;101908.34;;;20.05;100.00
66273;BME280;58450;52.150;4.466;2023-10-09T05:43:20;101891.56;;;20.20;100.00
66273;BME280;58450;52.150;4.466;2023-10-09T05:46:05;101881.03;;;20.23;100.00
66273;BME280;58450;52.150;4.466;2023-10-09T05:48:42;101887.47;;;19.85;100.00
66273;BME280;58450;52.150;4.466;2023-10-09T05:51:23;101902.72;;;20.00;100.00
66273;BME280;58450;52.150;4.466;2023-10-09T05:54:09;101904.94;;;20.28;100.00
66273;BME280;58450;52.150;4.466;2023-10-09T05:56:50;101916.00;;;20.15;100.00
66273;BME280;58450;52.150;4.466;2023-10-09T05:59:48;101898.69;;;19.77;100.00
66273;BME280;58450;52.150;4.466;2023-10-09T06:02:33;101886.03;;;19.83;100.00
66273;BME280;58450;52.150;4.466;2023-10-09T06:05:19;101854.34;;;20.00;100.00
66273;BME280;58450;52.150;4.466;2023-10-09T06:08:01;101899.69;;;20.08;100.00
66273;BME280;58450;52.150;4.466;2023-10-09T06:10:33;101946.50;;;19.86;100.00
66273;BME280;58450;52.150;4.466;2023-10-09T06:13:09;101942.47;;;19.63;100.00
66273;BME280;58450;52.150;4.466;2023-10-09T06:15:50;101941.56;;;19.44;100.00
66273;BME280;58450;52.150;4.466;2023-10-09T06:18:35;101928.97;;;19.75;100.00
66273;BME280;58450;52.150;4.466;2023-10-09T06:21:08;101943.66;;;19.74;100.00
66273;BME280;58450;52.150;4.466;2023-10-09T06:23:53;101957.19;;;19.62;100.00
66273;BME280;58450;52.150;4.466;2023-10-09T06:26:39;101953.41;;;19.63;100.00
66273;BME280;58450;52.150;4.466;2023-10-09T06:29:17;101955.44;;;20.00;100.00
66273;BME280;58450;52.150;4.466;2023-10-09T06:32:01;101947.50;;;19.99;100.00
66273;BME280;58450;52.150;4.466;2023-10-09T06:35:01;101959.81;;;20.08;100.00
66273;BME280;58450;52.150;4.466;2023-10-09T06:37:47;101968.00;;;19.76;100.00
66273;BME280;58450;52.150;4.466;2023-10-09T06:40:34;101972.56;;;19.57;100.00
66273;BME280;58450;52.150;4.466;2023-10-09T06:43:22;101962.47;;;19.57;100.00
66273;BME280;58450;52.150;4.466;2023-10-09T06:45:55;101963.94;;;19.60;100.00
66273;BME280;58450;52.150;4.466;2023-10-09T06:48:45;101958.47;;;19.92;100.00
66273;BME280;58450;52.150;4.466;2023-10-09T06:51:13;101961.59;;;19.96;100.00
66273;BME280;58450;52.150;4.466;2023-10-09T06:54:04;101960.97;;;19.93;100.00
66273;BME280;58450;52.150;4.466;2023-10-09T06:56:33;101938.31;;;20.12;100.00
66273;BME280;58450;52.150;4.466;2023-10-09T06:59:30;101914.91;;;20.41;100.00
66273;BME280;58450;52.150;4.466;2023-10-09T07:02:28;101893.03;;;20.22;100.00
66273;BME280;58450;52.150;4.466;2023-10-09T07:04:57;101874.56;;;20.18;100.00
66273;BME280;58450;52.150;4.466;2023-10-09T07:07:36;101885.03;;;20.02;100.00
66273;BME280;58450;52.150;4.466;2023-10-09T07:10:18;101898.34;;;19.92;100.00
66273;BME280;58450;52.150;4.466;2023-10-09T07:13:00;101897.75;;;19.90;100.00
66273;BME280;58450;52.150;4.466;2023-10-09T07:15:28;101888.38;;;19.79;100.00
66273;BME280;58450;52.150;4.466;2023-10-09T07:18:12;101909.03;;;20.19;100.00
66273;BME280;58450;52.150;4.466;2023-10-09T07:20:49;101938.72;;;20.15;100.00
66273;BME280;58450;52.150;4.466;2023-10-09T07:23:27;101928.84;;;20.14;100.00
66273;BME280;58450;52.150;4.466;2023-10-09T07:26:04;101927.72;;;20.22;100.00
66273;BME280;58450;52.150;4.466;2023-10-09T07:29:03;101914.38;;;20.32;100.00
66273;BME280;58450;52.150;4.466;2023-10-09T07:31:45;101897.88;;;20.02;100.00
66273;BME280;58450;52.150;4.466;2023-10-09T07:34:13;101896.81;;;20.03;100.00
66273;BME280;58450;52.150;4.466;2023-10-09T07:37:20;101896.81;;;20.03;100.00
66273;BME280;58450;52.150;4.466;2023-10-09T07:39:50;101898.41;;;20.11;100.00
66273;BME280;58450;52.150;4.466;2023-10-09T07:42:26;101911.59;;;20.14;100.00
66273;BME280;58450;52.150;4.466;2023-10-09T07:45:00;101913.31;;;20.33;100.00
66273;BME280;58450;52.150;4.466;2023-10-09T07:47:38;101923.56;;;20.19;100.00
66273;BME280;58450;52.150;4.466;2023-10-09T07:50:25;101936.56;;;20.43;100.00
66273;BME280;58450;52.150;4.466;2023-10-09T07:53:04;101944.31;;;20.46;100.00
66273;BME280;58450;52.150;4.466;2023-10-09T07:55:53;101937.47;;;20.55;100.00
66273;BME280;58450;52.150;4.466;2023-10-09T07:58:25;101953.13;;;20.66;100.00
66273;BME280;58450;52.150;4.466;2023-10-09T08:00:54;101954.47;;;20.76;100.00
66273;BME280;58450;52.150;4.466;2023-10-09T08:03:41;101952.19;;;21.10;100.00
66273;BME280;58450;52.150;4.466;2023-10-09T08:06:12;101964.00;;;20.92;100.00
66273;BME280;58450;52.150;4.466;2023-10-09T08:08:57;101970.44;;;20.98;100.00
66273;BME280;58450;52.150;4.466;2023-10-09T08:11:44;101984.44;;;20.71;100.00
66273;BME280;58450;52.150;4.466;2023-10-09T08:15:01;101981.69;;;21.08;100.00
66273;BME280;58450;52.150;4.466;2023-10-09T08:17:44;101982.59;;;20.64;100.00
66273;BME280;58450;52.150;4.466;2023-10-09T08:20:17;101987.25;;;21.01;100.00
66273;BME280;58450;52.150;4.466;2023-10-09T08:22:51;101992.31;;;21.35;100.00
66273;BME280;58450;52.150;4.466;2023-10-09T08:25:21;101989.38;;;21.48;100.00
66273;BME280;58450;52.150;4.466;2023-10-09T08:27:58;102010.09;;;21.75;100.00
66273;BME280;58450;52.150;4.466;2023-10-09T08:30:42;102005.53;;;21.68;100.00
66273;BME280;58450;52.150;4.466;2023-10-09T08:33:16;102015.69;;;21.49;100.00
66273;BME280;58450;52.150;4.466;2023-10-09T08:36:07;102029.28;;;21.87;100.00
66273;BME280;58450;52.150;4.466;2023-10-09T08:38:35;102024.34;;;22.07;100.00
66273;BME280;58450;52.150;4.466;2023-10-09T08:41:07;102035.22;;;21.83;100.00
66273;BME280;58450;52.150;4.466;2023-10-09T08:43:48;102033.47;;;21.59;100.00
66273;BME280;58450;52.150;4.466;2023-10-09T08:46:23;102036.28;;;21.70;100.00
66273;BME280;58450;52.150;4.466;2023-10-09T08:48:54;102030.53;;;22.03;100.00
66273;BME280;58450;52.150;4.466;2023-10-09T08:51:24;102034.91;;;21.92;100.00
66273;BME280;58450;52.150;4.466;2023-10-09T08:53:52;102042.69;;;21.64;100.00
66273;BME280;58450;52.150;4.466;2023-10-09T08:56:21;102045.84;;;21.80;100.00
66273;BME280;58450;52.150;4.466;2023-10-09T08:58:50;102043.09;;;21.80;100.00
66273;BME280;58450;52.150;4.466;2023-10-09T09:01:21;102048.41;;;22.05;100.00
66273;BME280;58450;52.150;4.466;2023-10-09T09:03:51;102053.78;;;21.51;100.00
66273;BME280;58450;52.150;4.466;2023-10-09T09:06:23;102056.25;;;21.40;100.00
66273;BME280;58450;52.150;4.466;2023-10-09T09:08:51;102057.72;;;21.24;100.00
66273;BME280;58450;52.150;4.466;2023-10-09T09:11:25;102062.13;;;21.25;100.00
66273;BME280;58450;52.150;4.466;2023-10-09T09:14:03;102062.13;;;21.25;100.00
66273;BME280;58450;52.150;4.466;2023-10-09T09:16:34;102056.84;;;21.43;100.00
66273;BME280;58450;52.150;4.466;2023-10-09T09:19:03;102047.50;;;21.50;100.00
66273;BME280;58450;52.150;4.466;2023-10-09T09:21:48;102041.03;;;22.06;100.00
66273;BME280;58450;52.150;4.466;2023-10-09T09:24:20;102045.66;;;22.05;100.00
66273;BME280;58450;52.150;4.466;2023-10-09T09:27:00;102043.97;;;21.92;100.00
66273;BME280;58450;52.150;4.466;2023-10-09T09:29:40;102045.06;;;22.03;100.00
66273;BME280;58450;52.150;4.466;2023-10-09T09:32:27;102048.53;;;21.98;100.00
66273;BME280;58450;52.150;4.466;2023-10-09T09:35:02;102050.88;;;21.95;100.00
66273;BME280;58450;52.150;4.466;2023-10-09T09:37:32;102053.41;;;21.96;100.00
66273;BME280;58450;52.150;4.466;2023-10-09T09:40:16;102048.31;;;21.69;100.00
66273;BME280;58450;52.150;4.466;2023-10-09T09:42:57;102043.53;;;21.46;100.00
66273;BME280;58450;52.150;4.466;2023-10-09T09:45:32;102046.66;;;21.50;100.00
66273;BME280;58450;52.150;4.466;2023-10-09T09:48:02;102045.81;;;21.49;100.00
66273;BME280;58450;52.150;4.466;2023-10-09T09:50:32;102046.78;;;21.55;100.00
66273;BME280;58450;52.150;4.466;2023-10-09T09:53:04;102047.09;;;21.65;100.00
66273;BME280;58450;52.150;4.466;2023-10-09T09:55:34;102054.75;;;21.75;100.00
66273;BME280;58450;52.150;4.466;2023-10-09T09:58:12;102060.56;;;21.67;100.00
66273;BME280;58450;52.150;4.466;2023-10-09T10:00:47;102047.13;;;22.20;100.00
66273;BME280;58450;52.150;4.466;2023-10-09T10:03:25;102052.47;;;22.26;100.00
66273;BME280;58450;52.150;4.466;2023-10-09T10:05:59;102048.91;;;22.97;100.00
66273;BME280;58450;52.150;4.466;2023-10-09T10:08:31;102053.81;;;23.48;100.00
66273;BME280;58450;52.150;4.466;2023-10-09T10:10:59;102055.78;;;23.36;100.00
66273;BME280;58450;52.150;4.466;2023-10-09T10:13:55;102053.72;;;22.66;100.00
66273;BME280;58450;52.150;4.466;2023-10-09T10:16:30;102062.56;;;22.45;100.00
66273;BME280;58450;52.150;4.466;2023-10-09T10:19:04;102059.69;;;22.51;100.00
66273;BME280;58450;52.150;4.466;2023-10-09T10:21:47;102048.44;;;22.29;100.00
66273;BME280;58450;52.150;4.466;2023-10-09T10:24:42;102049.16;;;22.36;100.00
66273;BME280;58450;52.150;4.466;2023-10-09T10:27:23;102060.50;;;22.28;100.00
66273;BME280;58450;52.150;4.466;2023-10-09T10:30:27;102058.94;;;23.03;100.00
66273;BME280;58450;52.150;4.466;2023-10-09T10:33:03;102060.38;;;22.94;100.00
66273;BME280;58450;52.150;4.466;2023-10-09T10:35:39;102079.81;;;23.05;100.00
66273;BME280;58450;52.150;4.466;2023-10-09T10:38:31;102070.03;;;22.37;100.00
66273;BME280;58450;52.150;4.466;2023-10-09T10:41:10;102070.19;;;22.66;100.00
66273;BME280;58450;52.150;4.466;2023-10-09T10:43:40;102067.09;;;22.51;100.00
66273;BME280;58450;52.150;4.466;2023-10-09T10:46:25;102062.91;;;22.72;100.00
66273;BME280;58450;52.150;4.466;2023-10-09T10:49:04;102067.78;;;22.58;100.00
66273;BME280;58450;52.150;4.466;2023-10-09T10:51:43;102058.66;;;23.17;100.00
66273;BME280;58450;52.150;4.466;2023-10-09T10:54:22;102060.09;;;23.60;100.00
66273;BME280;58450;52.150;4.466;2023-10-09T10:57:15;102066.13;;;23.45;100.00
66273;BME280;58450;52.150;4.466;2023-10-09T10:59:56;102077.28;;;23.68;100.00
66273;BME280;58450;52.150;4.466;2023-10-09T11:03:00;102074.91;;;23.30;100.00
66273;BME280;58450;52.150;4.466;2023-10-09T11:05:41;102064.34;;;22.63;100.00
66273;BME280;58450;52.150;4.466;2023-10-09T11:08:18;102070.66;;;22.87;100.00
66273;BME280;58450;52.150;4.466;2023-10-09T11:11:10;102074.81;;;23.01;100.00
66273;BME280;58450;52.150;4.466;2023-10-09T11:13:42;102062.56;;;22.56;100.00
66273;BME280;58450;52.150;4.466;2023-10-09T11:16:20;102060.00;;;22.31;100.00
66273;BME280;58450;52.150;4.466;2023-10-09T11:19:10;102068.63;;;22.70;100.00
66273;BME280;58450;52.150;4.466;2023-10-09T11:21:50;102066.84;;;22.88;100.00
66273;BME280;58450;52.150;4.466;2023-10-09T11:24:48;102073.78;;;22.67;100.00
66273;BME280;58450;52.150;4.466;2023-10-09T11:27:37;102081.78;;;22.14;100.00
66273;BME280;58450;52.150;4.466;2023-10-09T11:30:16;102075.94;;;21.98;100.00
66273;BME280;58450;52.150;4.466;2023-10-09T11:33:04;102076.06;;;21.73;100.00
66273;BME280;58450;52.150;4.466;2023-10-09T11:35:33;102073.38;;;21.36;100.00
66273;BME280;58450;52.150;4.466;2023-10-09T11:40:48;102063.47;;;21.53;100.00
66273;BME280;58450;52.150;4.466;2023-10-09T11:43:48;102060.34;;;21.68;100.00
66273;BME280;58450;52.150;4.466;2023-10-09T11:46:21;102065.44;;;21.65;100.00
66273;BME280;58450;52.150;4.466;2023-10-09T11:49:14;102059.81;;;21.60;100.00
66273;BME280;58450;52.150;4.466;2023-10-09T11:52:10;102058.22;;;21.33;100.00
66273;BME280;58450;52.150;4.466;2023-10-09T11:54:55;102051.50;;;21.66;100.00
66273;BME280;58450;52.150;4.466;2023-10-09T11:57:25;102045.50;;;21.88;100.00
66273;BME280;58450;52.150;4.466;2023-10-09T11:59:57;102041.28;;;22.28;100.00
66273;BME280;58450;52.150;4.466;2023-10-09T12:02:26;102054.00;;;21.98;100.00
66273;BME280;58450;52.150;4.466;2023-10-09T12:04:54;102056.97;;;22.09;100.00
66273;BME280;58450;52.150;4.466;2023-10-09T12:07:24;102053.66;;;21.64;100.00
66273;BME280;58450;52.150;4.466;2023-10-09T12:09:53;102056.97;;;21.97;100.00
66273;BME280;58450;52.150;4.466;2023-10-09T12:12:22;102063.50;;;21.96;100.00
66273;BME280;58450;52.150;4.466;2023-10-09T12:14:54;102069.25;;;22.49;100.00
66273;BME280;58450;52.150;4.466;2023-10-09T12:17:21;102069.34;;;22.78;100.00
66273;BME280;58450;52.150;4.466;2023-10-09T12:19:51;102063.97;;;22.59;100.00
66273;BME280;58450;52.150;4.466;2023-10-09T12:22:22;102070.31;;;22.71;100.00
66273;BME280;58450;52.150;4.466;2023-10-09T12:24:53;102061.09;;;22.54;100.00
66273;BME280;58450;52.150;4.466;2023-10-09T12:27:20;102054.88;;;22.23;100.00
66273;BME280;58450;52.150;4.466;2023-10-09T12:29:48;102051.19;;;21.75;100.00
66273;BME280;58450;52.150;4.466;2023-10-09T12:32:17;102060.47;;;21.55;100.00
66273;BME280;58450;52.150;4.466;2023-10-09T12:34:46;102054.88;;;21.31;100.00
66273;BME280;58450;52.150;4.466;2023-10-09T12:37:16;102052.66;;;21.59;100.00
66273;BME280;58450;52.150;4.466;2023-10-09T12:39:46;102051.41;;;21.73;100.00
66273;BME280;58450;52.150;4.466;2023-10-09T12:42:14;102059.13;;;21.64;100.00
66273;BME280;58450;52.150;4.466;2023-10-09T12:44:43;102059.94;;;21.65;100.00
66273;BME280;58450;52.150;4.466;2023-10-09T12:47:11;102065.28;;;21.60;100.00
66273;BME280;58450;52.150;4.466;2023-10-09T12:49:40;102062.53;;;21.60;100.00
66273;BME280;58450;52.150;4.466;2023-10-09T12:52:07;102060.44;;;21.43;100.00
66273;BME280;58450;52.150;4.466;2023-10-09T12:54:42;102051.94;;;21.14;100.00
66273;BME280;58450;52.150;4.466;2023-10-09T12:57:12;102056.09;;;21.35;100.00
66273;BME280;58450;52.150;4.466;2023-10-09T12:59:41;102064.47;;;21.22;100.00
66273;BME280;58450;52.150;4.466;2023-10-09T13:02:12;102060.31;;;21.19;100.00
66273;BME280;58450;52.150;4.466;2023-10-09T13:04:55;102064.56;;;21.34;100.00
66273;BME280;58450;52.150;4.466;2023-10-09T13:07:23;102048.19;;;21.27;100.00
66273;BME280;58450;52.150;4.466;2023-10-09T13:09:51;102062.69;;;21.16;100.00
66273;BME280;58450;52.150;4.466;2023-10-09T13:12:32;102062.13;;;21.25;100.00
66273;BME280;58450;52.150;4.466;2023-10-09T13:15:00;102064.75;;;21.51;100.00
66273;BME280;58450;52.150;4.466;2023-10-09T13:17:27;102059.09;;;21.95;100.00
66273;BME280;58450;52.150;4.466;2023-10-09T13:19:56;102061.97;;;22.00;100.00
66273;BME280;58450;52.150;4.466;2023-10-09T13:22:24;102062.69;;;21.65;100.00
66273;BME280;58450;52.150;4.466;2023-10-09T13:24:51;102050.34;;;21.74;100.00
66273;BME280;58450;52.150;4.466;2023-10-09T13:27:29;102040.25;;;21.87;100.00
66273;BME280;58450;52.150;4.466;2023-10-09T13:30:00;102049.19;;;21.82;100.00